sensor_id;sensor_type;location;lat;lon;timestamp;P1;durP1;ratioP1;P2;durP2;ratioP2
28760;SDS011;15917;50.014;8.352;2023-02-10T00:01:03;59.75;;;23.77;;
28760;SDS011;15917;50.014;8.352;2023-02-10T00:03:30;63.97;;;22.73;;
28760;SDS011;15917;50.014;8.352;2023-02-10T00:05:56;66.03;;;24.60;;
28760;SDS011;15917;50.014;8.352;2023-02-10T00:08:21;63.00;;;24.45;;
28760;SDS011;15917;50.014;8.352;2023-02-10T00:10:47;64.63;;;24.27;;
28760;SDS011;15917;50.014;8.352;2023-02-10T00:13:13;54.25;;;21.48;;
28760;SDS011;15917;50.014;8.352;2023-02-10T00:15:38;62.45;;;22.65;;
28760;SDS011;15917;50.014;8.352;2023-02-10T00:18:04;61.10;;;23.50;;
28760;SDS011;15917;50.014;8.352;2023-02-10T00:20:30;63.03;;;24.08;;
28760;SDS011;15917;50.014;8.352;2023-02-10T00:22:55;61.00;;;22.40;;
28760;SDS011;15917;50.014;8.352;2023-02-10T00:25:21;66.05;;;24.58;;
28760;SDS011;15917;50.014;8.352;2023-02-10T00:27:46;69.30;;;23.35;;
28760;SDS011;15917;50.014;8.352;2023-02-10T00:30:12;66.78;;;25.10;;
28760;SDS011;15917;50.014;8.352;2023-02-10T00:32:38;68.28;;;23.65;;
28760;SDS011;15917;50.014;8.352;2023-02-10T00:35:06;63.27;;;24.67;;
28760;SDS011;15917;50.014;8.352;2023-02-10T00:37:32;69.38;;;22.40;;
28760;SDS011;15917;50.014;8.352;2023-02-10T00:39:58;63.55;;;23.20;;
28760;SDS011;15917;50.014;8.352;2023-02-10T00:42:25;59.88;;;23.55;;
28760;SDS011;15917;50.014;8.352;2023-02-10T00:44:51;65.20;;;23.25;;
28760;SDS011;15917;50.014;8.352;2023-02-10T00:47:18;58.65;;;24.08;;
28760;SDS011;15917;50.014;8.352;2023-02-10T00:49:43;65.50;;;24.77;;
28760;SDS011;15917;50.014;8.352;2023-02-10T00:52:09;69.25;;;25.90;;
28760;SDS011;15917;50.014;8.352;2023-02-10T00:54:35;61.88;;;25.23;;
28760;SDS011;15917;50.014;8.352;2023-02-10T00:57:00;61.50;;;23.63;;
28760;SDS011;15917;50.014;8.352;2023-02-10T00:59:26;63.15;;;23.67;;
28760;SDS011;15917;50.014;8.352;2023-02-10T01:01:52;64.05;;;23.00;;
28760;SDS011;15917;50.014;8.352;2023-02-10T01:04:17;61.38;;;23.38;;
28760;SDS011;15917;50.014;8.352;2023-02-10T01:06:43;60.17;;;22.90;;
28760;SDS011;15917;50.014;8.352;2023-02-10T01:09:08;62.75;;;22.52;;
28760;SDS011;15917;50.014;8.352;2023-02-10T01:11:34;64.28;;;22.80;;
28760;SDS011;15917;50.014;8.352;2023-02-10T01:14:01;67.72;;;24.95;;
28760;SDS011;15917;50.014;8.352;2023-02-10T01:16:27;60.22;;;23.80;;
28760;SDS011;15917;50.014;8.352;2023-02-10T01:18:52;55.85;;;22.23;;
28760;SDS011;15917;50.014;8.352;2023-02-10T01:21:19;65.53;;;24.05;;
28760;SDS011;15917;50.014;8.352;2023-02-10T01:23:45;63.97;;;24.40;;
28760;SDS011;15917;50.014;8.352;2023-02-10T01:26:12;53.30;;;22.95;;
28760;SDS011;15917;50.014;8.352;2023-02-10T01:28:39;71.32;;;25.58;;
28760;SDS011;15917;50.014;8.352;2023-02-10T01:31:06;64.87;;;24.17;;
28760;SDS011;15917;50.014;8.352;2023-02-10T01:33:38;58.03;;;22.65;;
28760;SDS011;15917;50.014;8.352;2023-02-10T01:36:05;65.43;;;24.90;;
28760;SDS011;15917;50.014;8.352;2023-02-10T01:38:32;79.10;;;25.17;;
28760;SDS011;15917;50.014;8.352;2023-02-10T01:40:57;63.22;;;23.50;;
28760;SDS011;15917;50.014;8.352;2023-02-10T01:43:24;73.00;;;25.57;;
28760;SDS011;15917;50.014;8.352;2023-02-10T01:45:52;56.15;;;23.45;;
28760;SDS011;15917;50.014;8.352;2023-02-10T01:48:18;66.90;;;24.80;;
28760;SDS011;15917;50.014;8.352;2023-02-10T01:50:45;62.08;;;23.25;;
28760;SDS011;15917;50.014;8.352;2023-02-10T01:53:16;65.43;;;24.85;;
28760;SDS011;15917;50.014;8.352;2023-02-10T01:55:43;60.97;;;25.13;;
28760;SDS011;15917;50.014;8.352;2023-02-10T01:58:12;63.25;;;24.27;;
28760;SDS011;15917;50.014;8.352;2023-02-10T02:00:41;68.90;;;25.05;;
28760;SDS011;15917;50.014;8.352;2023-02-10T02:03:06;69.63;;;24.13;;
28760;SDS011;15917;50.014;8.352;2023-02-10T02:05:34;61.20;;;23.48;;
28760;SDS011;15917;50.014;8.352;2023-02-10T02:08:03;67.32;;;24.20;;
28760;SDS011;15917;50.014;8.352;2023-02-10T02:25:18;64.75;;;22.77;;
28760;SDS011;15917;50.014;8.352;2023-02-10T02:33:46;55.85;;;20.38;;
28760;SDS011;15917;50.014;8.352;2023-02-10T02:36:23;51.33;;;20.65;;
28760;SDS011;15917;50.014;8.352;2023-02-10T02:38:57;54.60;;;22.45;;
28760;SDS011;15917;50.014;8.352;2023-02-10T02:41:29;60.75;;;20.65;;
28760;SDS011;15917;50.014;8.352;2023-02-10T02:43:56;51.08;;;21.55;;
28760;SDS011;15917;50.014;8.352;2023-02-10T02:49:17;62.83;;;20.30;;
28760;SDS011;15917;50.014;8.352;2023-02-10T02:51:53;53.75;;;20.00;;
28760;SDS011;15917;50.014;8.352;2023-02-10T02:54:47;57.10;;;21.92;;
28760;SDS011;15917;50.014;8.352;2023-02-10T02:57:32;52.58;;;21.80;;
28760;SDS011;15917;50.014;8.352;2023-02-10T03:00:09;47.88;;;19.08;;
28760;SDS011;15917;50.014;8.352;2023-02-10T03:02:46;52.23;;;20.00;;
28760;SDS011;15917;50.014;8.352;2023-02-10T03:05:22;50.53;;;19.23;;
28760;SDS011;15917;50.014;8.352;2023-02-10T03:07:53;55.97;;;20.67;;
28760;SDS011;15917;50.014;8.352;2023-02-10T03:10:19;54.05;;;20.83;;
28760;SDS011;15917;50.014;8.352;2023-02-10T03:12:46;55.72;;;21.67;;
28760;SDS011;15917;50.014;8.352;2023-02-10T03:15:12;50.35;;;19.88;;
28760;SDS011;15917;50.014;8.352;2023-02-10T03:17:38;49.70;;;19.90;;
28760;SDS011;15917;50.014;8.352;2023-02-10T03:20:05;58.87;;;21.20;;
28760;SDS011;15917;50.014;8.352;2023-02-10T03:22:31;62.00;;;21.33;;
28760;SDS011;15917;50.014;8.352;2023-02-10T03:24:56;49.42;;;20.73;;
28760;SDS011;15917;50.014;8.352;2023-02-10T03:27:22;57.28;;;21.02;;
28760;SDS011;15917;50.014;8.352;2023-02-10T03:29:48;49.67;;;20.42;;
28760;SDS011;15917;50.014;8.352;2023-02-10T03:32:15;56.67;;;20.77;;
28760;SDS011;15917;50.014;8.352;2023-02-10T03:34:41;58.55;;;20.92;;
28760;SDS011;15917;50.014;8.352;2023-02-10T03:37:07;54.15;;;21.48;;
28760;SDS011;15917;50.014;8.352;2023-02-10T03:39:33;54.10;;;21.10;;
28760;SDS011;15917;50.014;8.352;2023-02-10T03:41:58;52.40;;;20.23;;
28760;SDS011;15917;50.014;8.352;2023-02-10T03:44:24;56.25;;;20.77;;
28760;SDS011;15917;50.014;8.352;2023-02-10T03:46:50;50.58;;;20.10;;
28760;SDS011;15917;50.014;8.352;2023-02-10T03:49:15;56.78;;;20.85;;
28760;SDS011;15917;50.014;8.352;2023-02-10T03:51:41;60.83;;;21.15;;
28760;SDS011;15917;50.014;8.352;2023-02-10T03:54:07;56.40;;;20.98;;
28760;SDS011;15917;50.014;8.352;2023-02-10T03:56:32;50.55;;;21.48;;
28760;SDS011;15917;50.014;8.352;2023-02-10T03:59:02;61.67;;;20.50;;
28760;SDS011;15917;50.014;8.352;2023-02-10T04:01:29;57.50;;;21.58;;
28760;SDS011;15917;50.014;8.352;2023-02-10T04:03:54;55.10;;;21.02;;
28760;SDS011;15917;50.014;8.352;2023-02-10T04:06:21;52.72;;;20.77;;
28760;SDS011;15917;50.014;8.352;2023-02-10T04:08:47;54.42;;;20.92;;
28760;SDS011;15917;50.014;8.352;2023-02-10T04:11:14;49.92;;;21.70;;
28760;SDS011;15917;50.014;8.352;2023-02-10T04:13:40;54.92;;;22.10;;
28760;SDS011;15917;50.014;8.352;2023-02-10T04:16:07;54.75;;;21.25;;
28760;SDS011;15917;50.014;8.352;2023-02-10T04:18:34;57.42;;;21.60;;
28760;SDS011;15917;50.014;8.352;2023-02-10T04:21:00;57.90;;;20.73;;
28760;SDS011;15917;50.014;8.352;2023-02-10T04:23:27;54.78;;;21.30;;
28760;SDS011;15917;50.014;8.352;2023-02-10T04:25:53;58.33;;;20.77;;
28760;SDS011;15917;50.014;8.352;2023-02-10T04:28:19;58.17;;;20.65;;
28760;SDS011;15917;50.014;8.352;2023-02-10T04:30:45;49.90;;;20.42;;
28760;SDS011;15917;50.014;8.352;2023-02-10T04:33:10;52.20;;;21.83;;
28760;SDS011;15917;50.014;8.352;2023-02-10T04:35:36;53.40;;;21.33;;
28760;SDS011;15917;50.014;8.352;2023-02-10T04:38:02;48.72;;;19.52;;
28760;SDS011;15917;50.014;8.352;2023-02-10T04:40:28;52.17;;;20.60;;
28760;SDS011;15917;50.014;8.352;2023-02-10T04:42:54;49.47;;;20.27;;
28760;SDS011;15917;50.014;8.352;2023-02-10T04:45:20;46.72;;;19.40;;
28760;SDS011;15917;50.014;8.352;2023-02-10T04:47:46;58.38;;;20.55;;
28760;SDS011;15917;50.014;8.352;2023-02-10T04:50:12;53.25;;;21.50;;
28760;SDS011;15917;50.014;8.352;2023-02-10T04:52:38;57.78;;;20.58;;
28760;SDS011;15917;50.014;8.352;2023-02-10T04:55:04;48.45;;;20.52;;
28760;SDS011;15917;50.014;8.352;2023-02-10T04:57:29;51.60;;;19.90;;
28760;SDS011;15917;50.014;8.352;2023-02-10T04:59:55;52.55;;;21.30;;
28760;SDS011;15917;50.014;8.352;2023-02-10T05:02:21;52.40;;;20.20;;
28760;SDS011;15917;50.014;8.352;2023-02-10T05:04:46;60.50;;;21.90;;
28760;SDS011;15917;50.014;8.352;2023-02-10T05:07:12;48.38;;;19.33;;
28760;SDS011;15917;50.014;8.352;2023-02-10T05:09:38;54.35;;;20.58;;
28760;SDS011;15917;50.014;8.352;2023-02-10T05:12:03;57.38;;;20.75;;
28760;SDS011;15917;50.014;8.352;2023-02-10T05:14:29;55.15;;;20.33;;
28760;SDS011;15917;50.014;8.352;2023-02-10T05:16:55;50.97;;;19.65;;
28760;SDS011;15917;50.014;8.352;2023-02-10T05:19:20;51.08;;;20.15;;
28760;SDS011;15917;50.014;8.352;2023-02-10T05:21:46;52.10;;;20.38;;
28760;SDS011;15917;50.014;8.352;2023-02-10T05:24:11;51.05;;;19.60;;
28760;SDS011;15917;50.014;8.352;2023-02-10T05:26:37;54.13;;;20.38;;
28760;SDS011;15917;50.014;8.352;2023-02-10T05:29:03;49.72;;;20.88;;
28760;SDS011;15917;50.014;8.352;2023-02-10T05:31:28;52.33;;;20.75;;
28760;SDS011;15917;50.014;8.352;2023-02-10T05:33:54;50.03;;;20.88;;
28760;SDS011;15917;50.014;8.352;2023-02-10T05:36:20;59.63;;;21.58;;
28760;SDS011;15917;50.014;8.352;2023-02-10T05:38:46;54.17;;;21.75;;
28760;SDS011;15917;50.014;8.352;2023-02-10T05:41:30;46.92;;;20.27;;
28760;SDS011;15917;50.014;8.352;2023-02-10T05:43:56;54.75;;;22.52;;
28760;SDS011;15917;50.014;8.352;2023-02-10T05:46:22;58.63;;;21.88;;
28760;SDS011;15917;50.014;8.352;2023-02-10T05:48:48;63.70;;;21.70;;
28760;SDS011;15917;50.014;8.352;2023-02-10T05:51:14;57.55;;;23.00;;
28760;SDS011;15917;50.014;8.352;2023-02-10T05:53:40;53.00;;;21.60;;
28760;SDS011;15917;50.014;8.352;2023-02-10T05:56:05;52.20;;;21.45;;
28760;SDS011;15917;50.014;8.352;2023-02-10T05:58:31;52.03;;;22.65;;
28760;SDS011;15917;50.014;8.352;2023-02-10T06:00:57;59.83;;;21.65;;
28760;SDS011;15917;50.014;8.352;2023-02-10T06:03:24;52.47;;;21.42;;
28760;SDS011;15917;50.014;8.352;2023-02-10T06:05:49;58.85;;;23.65;;
28760;SDS011;15917;50.014;8.352;2023-02-10T06:08:16;55.92;;;24.10;;
28760;SDS011;15917;50.014;8.352;2023-02-10T06:10:42;58.90;;;23.95;;
28760;SDS011;15917;50.014;8.352;2023-02-10T06:13:07;58.97;;;23.23;;
28760;SDS011;15917;50.014;8.352;2023-02-10T06:15:33;56.22;;;22.58;;
28760;SDS011;15917;50.014;8.352;2023-02-10T06:17:59;57.28;;;22.10;;
28760;SDS011;15917;50.014;8.352;2023-02-10T06:20:24;60.15;;;24.58;;
28760;SDS011;15917;50.014;8.352;2023-02-10T06:22:50;61.78;;;24.13;;
28760;SDS011;15917;50.014;8.352;2023-02-10T06:25:16;56.70;;;23.70;;
28760;SDS011;15917;50.014;8.352;2023-02-10T06:27:41;57.88;;;23.80;;
28760;SDS011;15917;50.014;8.352;2023-02-10T06:30:07;58.00;;;24.75;;
28760;SDS011;15917;50.014;8.352;2023-02-10T06:32:33;55.08;;;22.67;;
28760;SDS011;15917;50.014;8.352;2023-02-10T06:34:58;70.18;;;26.73;;
28760;SDS011;15917;50.014;8.352;2023-02-10T06:37:24;69.85;;;26.33;;
28760;SDS011;15917;50.014;8.352;2023-02-10T06:39:50;61.33;;;24.45;;
28760;SDS011;15917;50.014;8.352;2023-02-10T06:42:15;67.65;;;26.83;;
28760;SDS011;15917;50.014;8.352;2023-02-10T06:44:41;71.47;;;28.13;;
28760;SDS011;15917;50.014;8.352;2023-02-10T06:47:07;68.05;;;24.67;;
28760;SDS011;15917;50.014;8.352;2023-02-10T06:49:32;73.45;;;28.40;;
28760;SDS011;15917;50.014;8.352;2023-02-10T06:51:58;67.57;;;27.08;;
28760;SDS011;15917;50.014;8.352;2023-02-10T06:54:23;70.88;;;27.98;;
28760;SDS011;15917;50.014;8.352;2023-02-10T06:56:49;60.50;;;24.80;;
28760;SDS011;15917;50.014;8.352;2023-02-10T06:59:15;61.13;;;25.33;;
28760;SDS011;15917;50.014;8.352;2023-02-10T07:01:41;66.18;;;27.13;;
28760;SDS011;15917;50.014;8.352;2023-02-10T07:04:07;70.55;;;27.02;;
28760;SDS011;15917;50.014;8.352;2023-02-10T07:06:32;66.40;;;27.08;;
28760;SDS011;15917;50.014;8.352;2023-02-10T07:08:58;70.40;;;26.75;;
28760;SDS011;15917;50.014;8.352;2023-02-10T07:11:24;61.92;;;25.17;;
28760;SDS011;15917;50.014;8.352;2023-02-10T07:13:49;70.28;;;27.42;;
28760;SDS011;15917;50.014;8.352;2023-02-10T07:16:15;64.25;;;27.27;;
28760;SDS011;15917;50.014;8.352;2023-02-10T07:18:41;63.90;;;25.50;;
28760;SDS011;15917;50.014;8.352;2023-02-10T07:21:07;70.97;;;27.38;;
28760;SDS011;15917;50.014;8.352;2023-02-10T07:23:33;77.72;;;26.63;;
28760;SDS011;15917;50.014;8.352;2023-02-10T07:25:59;67.35;;;26.38;;
28760;SDS011;15917;50.014;8.352;2023-02-10T07:28:24;70.80;;;26.23;;
28760;SDS011;15917;50.014;8.352;2023-02-10T07:30:50;60.10;;;25.15;;
28760;SDS011;15917;50.014;8.352;2023-02-10T07:33:15;68.28;;;27.10;;
28760;SDS011;15917;50.014;8.352;2023-02-10T07:36:06;62.25;;;25.60;;
28760;SDS011;15917;50.014;8.352;2023-02-10T07:38:33;66.03;;;28.10;;
28760;SDS011;15917;50.014;8.352;2023-02-10T07:40:59;74.68;;;26.92;;
28760;SDS011;15917;50.014;8.352;2023-02-10T07:43:25;72.38;;;26.73;;
28760;SDS011;15917;50.014;8.352;2023-02-10T07:45:59;61.95;;;26.75;;
28760;SDS011;15917;50.014;8.352;2023-02-10T07:48:25;64.05;;;25.77;;
28760;SDS011;15917;50.014;8.352;2023-02-10T07:50:51;74.68;;;27.25;;
28760;SDS011;15917;50.014;8.352;2023-02-10T07:53:20;33.70;;;15.10;;
28760;SDS011;15917;50.014;8.352;2023-02-10T07:55:46;78.03;;;27.80;;
28760;SDS011;15917;50.014;8.352;2023-02-10T07:58:12;78.32;;;29.50;;
28760;SDS011;15917;50.014;8.352;2023-02-10T08:00:38;64.30;;;24.33;;
28760;SDS011;15917;50.014;8.352;2023-02-10T08:03:04;66.15;;;25.27;;
28760;SDS011;15917;50.014;8.352;2023-02-10T08:05:30;62.70;;;25.60;;
28760;SDS011;15917;50.014;8.352;2023-02-10T08:07:56;63.90;;;24.38;;
28760;SDS011;15917;50.014;8.352;2023-02-10T08:10:22;73.63;;;25.08;;
28760;SDS011;15917;50.014;8.352;2023-02-10T08:12:47;65.63;;;25.35;;
28760;SDS011;15917;50.014;8.352;2023-02-10T08:15:13;65.38;;;25.45;;
28760;SDS011;15917;50.014;8.352;2023-02-10T08:17:42;52.65;;;22.88;;
28760;SDS011;15917;50.014;8.352;2023-02-10T08:20:09;61.40;;;23.23;;
28760;SDS011;15917;50.014;8.352;2023-02-10T08:22:35;71.45;;;23.00;;
28760;SDS011;15917;50.014;8.352;2023-02-10T08:25:01;61.78;;;24.77;;
28760;SDS011;15917;50.014;8.352;2023-02-10T08:27:27;72.35;;;25.75;;
28760;SDS011;15917;50.014;8.352;2023-02-10T08:29:54;64.95;;;24.75;;
28760;SDS011;15917;50.014;8.352;2023-02-10T08:32:20;64.65;;;25.92;;
28760;SDS011;15917;50.014;8.352;2023-02-10T08:34:47;71.40;;;26.55;;
28760;SDS011;15917;50.014;8.352;2023-02-10T08:37:13;62.27;;;25.47;;
28760;SDS011;15917;50.014;8.352;2023-02-10T08:39:39;54.95;;;23.98;;
28760;SDS011;15917;50.014;8.352;2023-02-10T08:42:05;65.40;;;26.65;;
28760;SDS011;15917;50.014;8.352;2023-02-10T08:44:31;69.50;;;26.45;;
28760;SDS011;15917;50.014;8.352;2023-02-10T08:46:57;65.10;;;26.40;;
28760;SDS011;15917;50.014;8.352;2023-02-10T08:49:23;66.00;;;27.42;;
28760;SDS011;15917;50.014;8.352;2023-02-10T08:51:53;82.10;;;28.35;;
28760;SDS011;15917;50.014;8.352;2023-02-10T08:54:21;64.57;;;25.17;;
28760;SDS011;15917;50.014;8.352;2023-02-10T08:56:48;66.22;;;26.25;;
28760;SDS011;15917;50.014;8.352;2023-02-10T08:59:17;67.10;;;26.48;;
28760;SDS011;15917;50.014;8.352;2023-02-10T09:01:43;70.35;;;26.20;;
28760;SDS011;15917;50.014;8.352;2023-02-10T09:04:08;64.50;;;24.90;;
28760;SDS011;15917;50.014;8.352;2023-02-10T09:06:36;70.65;;;26.33;;
28760;SDS011;15917;50.014;8.352;2023-02-10T09:09:15;61.75;;;26.45;;
28760;SDS011;15917;50.014;8.352;2023-02-10T09:11:44;63.22;;;23.70;;
28760;SDS011;15917;50.014;8.352;2023-02-10T09:14:11;63.95;;;24.15;;
28760;SDS011;15917;50.014;8.352;2023-02-10T09:16:38;66.43;;;26.42;;
28760;SDS011;15917;50.014;8.352;2023-02-10T09:19:03;61.13;;;26.00;;
28760;SDS011;15917;50.014;8.352;2023-02-10T09:21:29;64.32;;;25.90;;
28760;SDS011;15917;50.014;8.352;2023-02-10T09:23:56;80.85;;;26.40;;
28760;SDS011;15917;50.014;8.352;2023-02-10T09:26:21;61.75;;;25.23;;
28760;SDS011;15917;50.014;8.352;2023-02-10T09:28:47;68.82;;;25.75;;
28760;SDS011;15917;50.014;8.352;2023-02-10T09:31:13;64.88;;;26.65;;
28760;SDS011;15917;50.014;8.352;2023-02-10T09:33:43;74.07;;;25.55;;
28760;SDS011;15917;50.014;8.352;2023-02-10T09:36:10;69.90;;;27.85;;
28760;SDS011;15917;50.014;8.352;2023-02-10T09:38:39;62.03;;;25.73;;
28760;SDS011;15917;50.014;8.352;2023-02-10T09:46:47;75.95;;;25.27;;
28760;SDS011;15917;50.014;8.352;2023-02-10T09:52:12;70.35;;;25.55;;
28760;SDS011;15917;50.014;8.352;2023-02-10T09:54:54;63.40;;;25.20;;
28760;SDS011;15917;50.014;8.352;2023-02-10T09:57:29;60.03;;;25.35;;
28760;SDS011;15917;50.014;8.352;2023-02-10T10:00:02;58.83;;;25.38;;
28760;SDS011;15917;50.014;8.352;2023-02-10T10:02:34;57.35;;;24.15;;
28760;SDS011;15917;50.014;8.352;2023-02-10T10:05:16;62.75;;;24.27;;
28760;SDS011;15917;50.014;8.352;2023-02-10T10:07:53;59.65;;;24.45;;
28760;SDS011;15917;50.014;8.352;2023-02-10T10:10:24;61.38;;;24.63;;
28760;SDS011;15917;50.014;8.352;2023-02-10T10:12:57;61.45;;;25.27;;
28760;SDS011;15917;50.014;8.352;2023-02-10T10:15:23;65.40;;;26.58;;
28760;SDS011;15917;50.014;8.352;2023-02-10T10:20:53;58.85;;;24.52;;
28760;SDS011;15917;50.014;8.352;2023-02-10T10:23:36;57.72;;;25.30;;
28760;SDS011;15917;50.014;8.352;2023-02-10T10:29:10;62.60;;;26.40;;
28760;SDS011;15917;50.014;8.352;2023-02-10T10:31:50;60.67;;;26.15;;
28760;SDS011;15917;50.014;8.352;2023-02-10T10:34:23;76.95;;;26.15;;
28760;SDS011;15917;50.014;8.352;2023-02-10T10:36:54;64.93;;;27.05;;
28760;SDS011;15917;50.014;8.352;2023-02-10T10:42:02;56.63;;;24.40;;
28760;SDS011;15917;50.014;8.352;2023-02-10T10:44:41;57.47;;;25.52;;
28760;SDS011;15917;50.014;8.352;2023-02-10T10:47:18;70.67;;;26.50;;
28760;SDS011;15917;50.014;8.352;2023-02-10T10:50:01;72.13;;;25.65;;
28760;SDS011;15917;50.014;8.352;2023-02-10T10:52:30;65.97;;;25.15;;
28760;SDS011;15917;50.014;8.352;2023-02-10T10:54:58;65.57;;;25.35;;
28760;SDS011;15917;50.014;8.352;2023-02-10T10:59:54;59.40;;;23.30;;
28760;SDS011;15917;50.014;8.352;2023-02-10T11:02:23;54.50;;;23.70;;
28760;SDS011;15917;50.014;8.352;2023-02-10T11:04:59;53.95;;;24.48;;
28760;SDS011;15917;50.014;8.352;2023-02-10T11:07:37;61.30;;;25.48;;
28760;SDS011;15917;50.014;8.352;2023-02-10T11:10:05;56.63;;;23.77;;
28760;SDS011;15917;50.014;8.352;2023-02-10T11:12:44;58.10;;;25.23;;
28760;SDS011;15917;50.014;8.352;2023-02-10T11:18:01;61.28;;;25.45;;
28760;SDS011;15917;50.014;8.352;2023-02-10T11:20:34;61.67;;;27.58;;
28760;SDS011;15917;50.014;8.352;2023-02-10T11:23:22;58.72;;;25.20;;
28760;SDS011;15917;50.014;8.352;2023-02-10T11:25:54;57.50;;;26.13;;
28760;SDS011;15917;50.014;8.352;2023-02-10T11:28:32;62.33;;;25.83;;
28760;SDS011;15917;50.014;8.352;2023-02-10T11:31:05;78.00;;;34.42;;
28760;SDS011;15917;50.014;8.352;2023-02-10T11:33:41;68.70;;;28.00;;
28760;SDS011;15917;50.014;8.352;2023-02-10T11:36:08;48.03;;;25.00;;
28760;SDS011;15917;50.014;8.352;2023-02-10T11:38:37;51.65;;;24.55;;
28760;SDS011;15917;50.014;8.352;2023-02-10T11:41:10;61.03;;;24.60;;
28760;SDS011;15917;50.014;8.352;2023-02-10T11:43:37;59.08;;;25.33;;
28760;SDS011;15917;50.014;8.352;2023-02-10T11:46:06;56.78;;;23.95;;
28760;SDS011;15917;50.014;8.352;2023-02-10T11:48:51;55.40;;;24.17;;
28760;SDS011;15917;50.014;8.352;2023-02-10T11:51:18;59.75;;;24.95;;
28760;SDS011;15917;50.014;8.352;2023-02-10T11:53:44;57.33;;;24.27;;
28760;SDS011;15917;50.014;8.352;2023-02-10T11:59:59;59.78;;;23.58;;
28760;SDS011;15917;50.014;8.352;2023-02-10T12:20:38;58.13;;;24.50;;
28760;SDS011;15917;50.014;8.352;2023-02-10T12:23:22;66.05;;;25.95;;
28760;SDS011;15917;50.014;8.352;2023-02-10T12:39:14;59.53;;;24.58;;
28760;SDS011;15917;50.014;8.352;2023-02-10T12:44:39;61.63;;;25.90;;
28760;SDS011;15917;50.014;8.352;2023-02-10T12:47:22;57.53;;;26.10;;
28760;SDS011;15917;50.014;8.352;2023-02-10T12:52:41;64.55;;;26.98;;
28760;SDS011;15917;50.014;8.352;2023-02-10T12:55:13;60.17;;;26.23;;
28760;SDS011;15917;50.014;8.352;2023-02-10T12:57:54;53.30;;;25.45;;
28760;SDS011;15917;50.014;8.352;2023-02-10T13:00:43;55.55;;;25.52;;
28760;SDS011;15917;50.014;8.352;2023-02-10T13:03:14;64.97;;;31.13;;
28760;SDS011;15917;50.014;8.352;2023-02-10T13:05:49;68.97;;;33.92;;
28760;SDS011;15917;50.014;8.352;2023-02-10T13:11:41;64.68;;;25.98;;
28760;SDS011;15917;50.014;8.352;2023-02-10T13:14:27;50.38;;;25.38;;
28760;SDS011;15917;50.014;8.352;2023-02-10T13:16:55;49.60;;;24.67;;
28760;SDS011;15917;50.014;8.352;2023-02-10T13:25:30;56.42;;;26.38;;
28760;SDS011;15917;50.014;8.352;2023-02-10T13:28:25;55.15;;;24.45;;
28760;SDS011;15917;50.014;8.352;2023-02-10T13:36:22;60.75;;;28.02;;
28760;SDS011;15917;50.014;8.352;2023-02-10T13:39:06;56.97;;;24.50;;
28760;SDS011;15917;50.014;8.352;2023-02-10T13:41:43;58.67;;;24.33;;
28760;SDS011;15917;50.014;8.352;2023-02-10T13:46:51;56.78;;;26.30;;
28760;SDS011;15917;50.014;8.352;2023-02-10T13:49:32;52.20;;;23.95;;
28760;SDS011;15917;50.014;8.352;2023-02-10T13:51:59;63.65;;;25.60;;
28760;SDS011;15917;50.014;8.352;2023-02-10T13:54:52;57.72;;;24.58;;
28760;SDS011;15917;50.014;8.352;2023-02-10T13:57:27;63.60;;;28.20;;
28760;SDS011;15917;50.014;8.352;2023-02-10T14:00:05;50.75;;;24.50;;
28760;SDS011;15917;50.014;8.352;2023-02-10T14:03:17;56.63;;;24.77;;
28760;SDS011;15917;50.014;8.352;2023-02-10T14:08:41;47.47;;;25.35;;
28760;SDS011;15917;50.014;8.352;2023-02-10T14:13:41;69.10;;;30.38;;
28760;SDS011;15917;50.014;8.352;2023-02-10T14:18:40;56.42;;;26.30;;
28760;SDS011;15917;50.014;8.352;2023-02-10T14:21:13;59.97;;;26.08;;
28760;SDS011;15917;50.014;8.352;2023-02-10T14:23:41;58.70;;;26.23;;
28760;SDS011;15917;50.014;8.352;2023-02-10T14:26:19;72.30;;;30.30;;
28760;SDS011;15917;50.014;8.352;2023-02-10T14:28:48;61.17;;;26.38;;
28760;SDS011;15917;50.014;8.352;2023-02-10T14:31:50;84.82;;;34.00;;
28760;SDS011;15917;50.014;8.352;2023-02-10T14:34:17;68.40;;;28.55;;
28760;SDS011;15917;50.014;8.352;2023-02-10T14:37:13;73.45;;;29.00;;
28760;SDS011;15917;50.014;8.352;2023-02-10T14:39:48;62.05;;;26.77;;
28760;SDS011;15917;50.014;8.352;2023-02-10T14:42:18;70.57;;;30.48;;
28760;SDS011;15917;50.014;8.352;2023-02-10T14:44:45;72.72;;;29.13;;
28760;SDS011;15917;50.014;8.352;2023-02-10T14:47:14;64.65;;;29.73;;
28760;SDS011;15917;50.014;8.352;2023-02-10T14:49:48;71.18;;;28.42;;
28760;SDS011;15917;50.014;8.352;2023-02-10T14:52:19;57.25;;;27.50;;
28760;SDS011;15917;50.014;8.352;2023-02-10T14:54:54;81.55;;;33.63;;
28760;SDS011;15917;50.014;8.352;2023-02-10T14:57:21;91.22;;;36.67;;
28760;SDS011;15917;50.014;8.352;2023-02-10T14:59:55;63.92;;;26.90;;
28760;SDS011;15917;50.014;8.352;2023-02-10T15:02:28;69.15;;;29.00;;
28760;SDS011;15917;50.014;8.352;2023-02-10T15:04:59;65.28;;;26.73;;
28760;SDS011;15917;50.014;8.352;2023-02-10T15:12:57;66.40;;;28.67;;
28760;SDS011;15917;50.014;8.352;2023-02-10T15:15:38;62.60;;;26.83;;
28760;SDS011;15917;50.014;8.352;2023-02-10T15:18:08;76.18;;;28.30;;
28760;SDS011;15917;50.014;8.352;2023-02-10T15:20:51;65.90;;;28.10;;
28760;SDS011;15917;50.014;8.352;2023-02-10T15:23:18;68.05;;;29.67;;
28760;SDS011;15917;50.014;8.352;2023-02-10T15:25:44;67.95;;;29.23;;
28760;SDS011;15917;50.014;8.352;2023-02-10T15:30:51;66.20;;;28.73;;
28760;SDS011;15917;50.014;8.352;2023-02-10T15:33:22;72.97;;;28.67;;
28760;SDS011;15917;50.014;8.352;2023-02-10T15:35:51;76.40;;;31.15;;
28760;SDS011;15917;50.014;8.352;2023-02-10T15:38:21;79.70;;;30.45;;
28760;SDS011;15917;50.014;8.352;2023-02-10T15:40:54;81.63;;;30.05;;
28760;SDS011;15917;50.014;8.352;2023-02-10T15:43:28;72.90;;;28.52;;
28760;SDS011;15917;50.014;8.352;2023-02-10T15:46:05;79.13;;;29.50;;
28760;SDS011;15917;50.014;8.352;2023-02-10T15:48:40;91.10;;;32.13;;
28760;SDS011;15917;50.014;8.352;2023-02-10T15:51:09;115.13;;;36.05;;
28760;SDS011;15917;50.014;8.352;2023-02-10T15:53:47;93.72;;;35.67;;
28760;SDS011;15917;50.014;8.352;2023-02-10T15:56:13;82.95;;;33.45;;
28760;SDS011;15917;50.014;8.352;2023-02-10T15:58:38;77.97;;;31.75;;
28760;SDS011;15917;50.014;8.352;2023-02-10T16:01:04;72.07;;;31.75;;
28760;SDS011;15917;50.014;8.352;2023-02-10T16:03:29;97.97;;;36.72;;
28760;SDS011;15917;50.014;8.352;2023-02-10T16:05:55;88.07;;;37.03;;
28760;SDS011;15917;50.014;8.352;2023-02-10T16:08:26;85.28;;;33.58;;
28760;SDS011;15917;50.014;8.352;2023-02-10T16:10:53;59.97;;;26.27;;
28760;SDS011;15917;50.014;8.352;2023-02-10T16:13:19;86.90;;;34.58;;
28760;SDS011;15917;50.014;8.352;2023-02-10T16:15:46;93.72;;;35.25;;
28760;SDS011;15917;50.014;8.352;2023-02-10T16:18:15;82.03;;;32.33;;
28760;SDS011;15917;50.014;8.352;2023-02-10T16:20:44;81.45;;;32.70;;
28760;SDS011;15917;50.014;8.352;2023-02-10T16:23:11;78.90;;;30.58;;
28760;SDS011;15917;50.014;8.352;2023-02-10T16:25:38;81.55;;;30.83;;
28760;SDS011;15917;50.014;8.352;2023-02-10T16:28:04;73.50;;;31.02;;
28760;SDS011;15917;50.014;8.352;2023-02-10T16:30:31;73.50;;;29.08;;
28760;SDS011;15917;50.014;8.352;2023-02-10T16:32:58;73.80;;;30.00;;